Time;durP1;ratioP1;P1;durP2;ratioP2;P2;SDS_P1;SDS_P2;PMS_P1;PMS_P2;Temp;Humidity;BMP_temperature;BMP_pressure;BME280_temperature;BME280_humidity;BME280_pressure;Samples;Min_cycle;Max_cycle;Signal;HPM_P1;HPM_P2
2021/12/17 00:01:06;;;;;;;49.10;38.50;;;;;;;3.73;78.67;102967.22;4875934;29;20680;-81
2021/12/17 00:03:41;;;;;;;45.50;39.03;;;;;;;3.57;78.61;102942.19;4875787;29;20484;-83
2021/12/17 00:06:29;;;;;;;49.53;41.03;;;;;;;3.72;77.98;102951.50;4875827;29;20403;-81
2021/12/17 00:08:58;;;;;;;52.93;42.97;;;;;;;3.72;78.44;102933.09;4875939;29;20400;-82
2021/12/17 00:11:25;;;;;;;55.30;42.37;;;;;;;3.39;78.34;102886.53;4876095;29;20801;-83
2021/12/17 00:13:54;;;;;;;49.27;40.73;;;;;;;3.97;78.40;102986.81;4889386;29;20051;-81
2021/12/17 00:16:25;;;;;;;53.53;41.60;;;;;;;3.70;78.52;102924.41;4915343;29;20048;-84
2021/12/17 00:19:24;;;;;;;51.47;39.37;;;;;;;3.82;77.83;102951.25;4915142;29;20114;-83
2021/12/17 00:49:03;;;;;;;34.30;29.33;;;;;;;3.86;77.40;103001.97;4931610;29;20134;-80
2021/12/17 00:54:22;;;;;;;33.40;28.50;;;;;;;3.79;77.23;102989.88;4931086;29;20058;-82
2021/12/17 00:56:52;;;;;;;35.63;29.70;;;;;;;3.69;77.16;102985.69;4914136;29;20056;-84
2021/12/17 00:59:20;;;;;;;39.93;30.77;;;;;;;3.64;77.39;102972.66;4931000;29;20191;-83
2021/12/17 01:01:50;;;;;;;42.37;32.30;;;;;;;3.75;77.92;103009.22;4926750;29;20508;-84
2021/12/17 01:04:17;;;;;;;38.00;30.87;;;;;;;3.76;78.04;103010.94;4926951;29;20052;-82
2021/12/17 01:06:44;;;;;;;40.50;32.27;;;;;;;3.77;77.85;103004.81;4911063;29;20071;-82
2021/12/17 01:09:14;;;;;;;39.53;32.17;;;;;;;3.79;77.76;103000.38;4926852;29;20148;-82
2021/12/17 01:11:40;;;;;;;41.87;31.90;;;;;;;2.99;77.70;102861.16;4911129;29;20338;-81
2021/12/17 01:14:07;;;;;;;39.27;30.53;;;;;;;3.48;78.04;102956.38;4910789;29;20091;-82
2021/12/17 01:16:34;;;;;;;42.63;33.20;;;;;;;3.05;77.56;102889.03;4910889;29;20056;-82
2021/12/17 01:19:21;;;;;;;38.60;31.27;;;;;;;3.54;77.82;102968.50;4911049;29;20268;-85
2021/12/17 01:22:26;;;;;;;44.17;33.70;;;;;;;3.73;77.70;102997.88;4926499;29;20056;-83
2021/12/17 01:24:50;;;;;;;39.87;34.70;;;;;;;3.74;77.87;102995.22;4912007;29;20135;-82
2021/12/17 01:35:35;;;;;;;52.73;40.40;;;;;;;3.72;77.54;102991.75;4912237;29;20048;-82
2021/12/17 01:43:17;;;;;;;55.17;40.47;;;;;;;3.52;77.56;102963.31;4911905;29;20504;-84
2021/12/17 01:45:44;;;;;;;54.57;39.33;;;;;;;3.45;77.66;102943.31;4910628;29;20052;-83
2021/12/17 01:48:18;;;;;;;49.50;38.00;;;;;;;3.60;77.23;102978.91;4911793;29;20323;-83
2021/12/17 01:56:38;;;;;;;53.10;39.20;;;;;;;3.60;78.21;102981.53;4912061;29;20060;-83
2021/12/17 02:02:01;;;;;;;50.73;41.33;;;;;;;3.06;77.82;102888.16;4916328;29;20123;-82
2021/12/17 02:04:29;;;;;;;55.50;42.97;;;;;;;2.64;78.29;102819.91;4930211;29;20582;-82
2021/12/17 02:06:57;;;;;;;53.17;43.60;;;;;;;2.79;78.31;102850.19;4930520;29;20051;-83
2021/12/17 02:28:54;;;;;;;47.13;35.83;;;;;;;3.35;78.23;102923.41;4929911;29;20051;-82
2021/12/17 02:31:32;;;;;;;46.93;36.13;;;;;;;3.52;78.05;102958.06;4912959;29;20066;-83
2021/12/17 02:34:04;;;;;;;42.83;35.10;;;;;;;3.35;77.80;102950.53;4913207;29;20054;-81
2021/12/17 02:36:34;;;;;;;;;;;;;;;3.51;78.27;102977.31;4913290;29;20089;-80
2021/12/17 02:39:31;;;;;;;43.83;35.07;;;;;;;3.54;78.28;102974.63;4912820;29;20309;-82
2021/12/17 02:47:23;;;;;;;48.13;37.23;;;;;;;3.49;77.68;102944.97;4929566;29;20056;-81
2021/12/17 02:49:50;;;;;;;45.00;36.67;;;;;;;3.45;77.88;102945.94;4928354;29;20060;-81
2021/12/17 02:52:17;;;;;;;45.10;37.53;;;;;;;3.38;77.69;102952.22;4912684;29;20472;-82
2021/12/17 02:54:47;;;;;;;48.40;39.87;;;;;;;3.04;77.38;102889.94;4929702;29;20143;-82
2021/12/17 02:57:14;;;;;;;49.43;37.80;;;;;;;3.46;77.53;102958.16;4912696;29;20059;-82
2021/12/17 02:59:40;;;;;;;44.37;36.27;;;;;;;3.39;77.91;102935.56;4916259;29;20293;-81
2021/12/17 03:02:11;;;;;;;48.63;36.70;;;;;;;3.47;77.53;102951.16;4932987;29;20146;-81
2021/12/17 03:04:40;;;;;;;47.30;35.90;;;;;;;2.26;77.54;102749.91;4916199;29;20056;-84
2021/12/17 03:07:13;;;;;;;44.00;34.57;;;;;;;2.35;77.56;102771.56;4932473;29;20051;-83
2021/12/17 03:12:28;;;;;;;41.87;34.60;;;;;;;3.48;77.30;102961.63;4933370;29;20078;-87
2021/12/17 03:15:08;;;;;;;42.97;33.73;;;;;;;3.22;77.47;102922.78;4916466;29;20050;-85
2021/12/17 03:25:47;;;;;;;42.47;33.53;;;;;;;3.38;77.69;102953.09;4896663;29;20443;-85
2021/12/17 03:28:17;;;;;;;50.03;35.50;;;;;;;2.81;77.49;102858.06;4916849;29;20071;-83
2021/12/17 03:30:43;;;;;;;48.37;37.60;;;;;;;3.03;76.93;102903.94;4916666;29;20680;-85
2021/12/17 03:33:11;;;;;;;43.57;35.73;;;;;;;2.90;77.26;102886.72;4916438;29;20051;-84
2021/12/17 03:35:39;;;;;;;43.43;35.23;;;;;;;3.05;77.15;102927.53;4916853;29;20048;-85
2021/12/17 03:38:06;;;;;;;43.03;33.80;;;;;;;3.11;77.23;102954.53;4918441;29;20488;-80
2021/12/17 03:40:36;;;;;;;51.47;37.27;;;;;;;2.95;76.69;102950.47;4917907;29;20043;-82
2021/12/17 03:43:11;;;;;;;46.53;38.60;;;;;;;3.18;75.88;103011.25;4934028;29;20468;-84
2021/12/17 03:45:40;;;;;;;49.97;37.20;;;;;;;2.97;75.46;103011.66;4916398;29;20512;-84
2021/12/17 03:48:07;;;;;;;49.77;37.20;;;;;;;2.40;75.05;102920.88;4915819;29;20142;-83
2021/12/17 03:50:36;;;;;;;49.67;39.17;;;;;;;2.67;75.30;102987.72;4932680;29;20051;-83
2021/12/17 03:53:05;;;;;;;53.53;41.43;;;;;;;2.59;75.99;103005.31;4915198;29;20058;-84
2021/12/17 03:55:34;;;;;;;50.90;41.30;;;;;;;2.00;76.69;102918.06;4915680;29;20052;-85
2021/12/17 03:58:02;;;;;;;52.67;43.40;;;;;;;2.44;77.16;102988.09;4932544;29;20392;-83
2021/12/17 04:00:29;;;;;;;48.23;37.27;;;;;;;2.59;76.48;102994.84;4932590;29;20047;-82
2021/12/17 04:02:57;;;;;;;54.17;42.00;;;;;;;2.31;75.64;102952.50;4933263;29;20111;-82
2021/12/17 04:05:24;;;;;;;52.13;42.43;;;;;;;1.74;76.27;102877.44;4915293;29;20133;-83
2021/12/17 04:07:51;;;;;;;54.83;41.83;;;;;;;2.40;76.25;102998.66;4932321;29;20146;-83
2021/12/17 04:10:19;;;;;;;54.00;43.90;;;;;;;2.26;77.06;102986.66;4914771;29;20135;-85
2021/12/17 04:15:19;;;;;;;52.13;42.70;;;;;;;1.92;76.86;102919.06;4932275;29;20493;-84
2021/12/17 04:17:53;;;;;;;52.73;41.53;;;;;;;2.14;76.48;102955.41;4915643;29;20063;-82
2021/12/17 04:20:21;;;;;;;50.77;39.47;;;;;;;2.17;76.88;102965.84;4932039;29;20147;-84
2021/12/17 04:22:47;;;;;;;55.90;41.00;;;;;;;1.56;76.85;102875.97;4915014;29;20052;-83
2021/12/17 04:25:14;;;;;;;53.00;41.10;;;;;;;2.27;77.14;102971.78;4930815;29;20134;-82
2021/12/17 04:27:41;;;;;;;48.63;40.10;;;;;;;2.54;76.81;103007.16;4915073;29;20087;-82
2021/12/17 04:30:08;;;;;;;54.80;41.33;;;;;;;2.53;76.57;103000.22;4931166;29;20377;-83
2021/12/17 04:32:35;;;;;;;55.33;41.07;;;;;;;1.14;76.57;102772.75;4915199;29;20388;-83
2021/12/17 04:35:03;;;;;;;53.27;43.23;;;;;;;2.50;76.75;103010.72;4915144;29;20052;-83
2021/12/17 04:37:30;;;;;;;56.87;42.60;;;;;;;2.30;77.24;102967.34;4914670;29;20054;-84
2021/12/17 04:39:56;;;;;;;56.57;42.10;;;;;;;2.40;77.32;102993.41;4915294;29;20056;-84
2021/12/17 04:42:37;;;;;;;54.10;42.07;;;;;;;2.45;76.98;103008.22;4914616;29;20061;-84
2021/12/17 04:45:09;;;;;;;55.83;42.83;;;;;;;2.39;77.21;102995.19;4931182;29;20119;-83
2021/12/17 04:58:37;;;;;;;59.53;45.30;;;;;;;2.39;77.68;102970.72;4931395;29;20108;-83
2021/12/17 05:01:10;;;;;;;54.93;45.37;;;;;;;2.42;77.71;102986.41;4931424;29;20083;-83
2021/12/17 05:03:36;;;;;;;57.13;45.30;;;;;;;2.04;77.17;102917.13;4911705;29;20154;-85
2021/12/17 05:06:03;;;;;;;58.43;45.33;;;;;;;2.20;77.22;102955.28;4911559;29;20142;-83
2021/12/17 05:08:30;;;;;;;62.60;45.90;;;;;;;2.31;77.67;102984.81;4911470;29;20048;-85
2021/12/17 05:11:21;;;;;;;58.93;45.30;;;;;;;2.34;77.64;102984.78;4912321;29;20600;-85
2021/12/17 05:19:39;;;;;;;59.53;45.77;;;;;;;2.21;77.91;102974.50;4892650;29;20055;-85
2021/12/17 05:22:10;;;;;;;58.83;44.60;;;;;;;0.71;77.73;102714.09;4906159;29;20076;-84
2021/12/17 05:24:39;;;;;;;62.27;47.83;;;;;;;1.10;77.97;102790.28;4892943;29;20068;-84
2021/12/17 05:27:07;;;;;;;56.60;46.23;;;;;;;0.55;77.87;102687.31;4908469;29;20593;-87
2021/12/17 05:29:36;;;;;;;56.70;45.43;;;;;;;1.05;77.92;102756.34;4910176;29;20051;-86
2021/12/17 05:32:04;;;;;;;59.83;46.27;;;;;;;2.50;78.00;103000.22;4910496;29;20088;-83
2021/12/17 05:34:30;;;;;;;59.10;46.87;;;;;;;2.47;78.09;102989.81;4911749;29;20143;-85
2021/12/17 05:36:57;;;;;;;54.67;45.30;;;;;;;2.47;78.27;102984.56;4910554;29;20052;-89
2021/12/17 05:39:23;;;;;;;64.40;48.87;;;;;;;2.45;78.65;102965.38;4910460;29;20051;-84
2021/12/17 05:41:50;;;;;;;53.00;43.70;;;;;;;2.39;78.14;102966.34;4910307;29;20147;-86
2021/12/17 05:44:18;;;;;;;63.00;46.97;;;;;;;2.56;78.44;102989.66;4909799;29;20250;-84
2021/12/17 05:46:50;;;;;;;59.10;45.60;;;;;;;1.54;77.94;102816.66;4910401;29;20056;-82
2021/12/17 05:49:19;;;;;;;56.87;44.80;;;;;;;2.66;78.22;103000.84;4910167;29;20107;-84
2021/12/17 05:51:49;;;;;;;56.83;46.50;;;;;;;2.64;78.11;103003.50;4908722;29;20771;-88
2021/12/17 05:54:17;;;;;;;56.40;45.47;;;;;;;1.18;77.74;102761.38;4910341;29;20052;-86
2021/12/17 05:56:44;;;;;;;54.63;42.60;;;;;;;1.98;77.92;102891.88;4909611;29;20313;-87
2021/12/17 05:59:13;;;;;;;54.50;42.23;;;;;;;2.66;78.10;102995.59;4909231;29;20143;-84
2021/12/17 06:01:40;;;;;;;56.43;41.43;;;;;;;1.45;78.20;102797.56;4913434;29;20449;-83
2021/12/17 06:04:07;;;;;;;58.83;43.67;;;;;;;2.58;77.91;102966.91;4912880;29;20134;-83
2021/12/17 06:06:37;;;;;;;53.80;41.53;;;;;;;2.73;78.56;102982.34;4912994;29;20048;-85
2021/12/17 06:09:09;;;;;;;51.10;40.77;;;;;;;1.96;78.40;102840.41;4912575;29;20535;-83
2021/12/17 06:11:39;;;;;;;57.90;44.28;;;;;;;2.44;78.37;102924.31;4912914;29;20048;-82
2021/12/17 06:14:10;;;;;;;52.83;41.20;;;;;;;1.88;78.10;102815.22;4929691;29;20043;-84
2021/12/17 06:16:37;;;;;;;50.73;40.27;;;;;;;3.09;78.55;102990.44;4915821;29;20052;-77
2021/12/17 06:19:04;;;;;;;54.10;41.13;;;;;;;1.77;77.92;102761.28;4928015;29;20461;-85
2021/12/17 06:21:31;;;;;;;52.50;40.33;;;;;;;2.42;78.22;102855.31;4925273;29;20135;-84
2021/12/17 06:23:58;;;;;;;54.63;41.63;;;;;;;3.34;78.03;102979.44;4926738;29;20139;-81
2021/12/17 06:26:28;;;;;;;55.10;42.33;;;;;;;2.88;78.43;102880.66;4920615;29;20396;-84
2021/12/17 06:28:55;;;;;;;47.40;38.37;;;;;;;3.40;78.21;102950.44;4928253;29;20130;-85
2021/12/17 06:31:25;;;;;;;53.50;40.80;;;;;;;2.82;77.83;102839.66;4929132;29;20424;-85
2021/12/17 06:33:51;;;;;;;55.97;42.47;;;;;;;3.40;78.19;102911.06;4912174;29;20110;-82
2021/12/17 06:36:18;;;;;;;49.97;39.93;;;;;;;2.73;77.55;102796.13;4929172;29;20356;-85
2021/12/17 06:38:45;;;;;;;51.73;40.07;;;;;;;2.98;77.90;102834.94;4927637;29;20055;-87
2021/12/17 06:41:14;;;;;;;48.00;40.33;;;;;;;2.01;77.35;102660.41;4929392;29;20428;-85
2021/12/17 06:43:43;;;;;;;53.07;40.17;;;;;;;2.88;76.95;102807.19;4929323;29;20088;-84
2021/12/17 06:46:21;;;;;;;50.38;39.35;;;;;;;2.75;77.23;102770.72;4929271;29;20135;-84
2021/12/17 06:48:55;;;;;;;48.20;38.53;;;;;;;3.43;77.07;102859.31;4923539;29;20052;-84
2021/12/17 07:10:17;;;;;;;44.80;34.57;;;;;;;4.26;75.53;102972.13;4929880;29;20082;-84
2021/12/17 07:19:51;;;;;;;48.33;35.67;;;;;;;3.70;75.64;102887.63;4930192;29;20116;-85
2021/12/17 07:33:59;;;;;;;42.50;35.13;;;;;;;4.64;74.66;103001.88;4931292;29;20066;-83
2021/12/17 07:36:36;;;;;;;47.30;35.30;;;;;;;4.44;74.61;102971.66;4914050;29;20265;-88
2021/12/17 07:39:03;;;;;;;45.97;35.20;;;;;;;3.29;74.45;102781.78;4912718;29;20055;-86
2021/12/17 07:41:30;;;;;;;39.60;32.50;;;;;;;3.98;74.16;102891.31;4913048;29;20047;-86
2021/12/17 07:43:59;;;;;;;49.47;34.97;;;;;;;4.70;74.37;103010.44;4912967;29;20107;-83
2021/12/17 07:46:28;;;;;;;42.20;33.60;;;;;;;4.77;73.77;103010.28;4914555;29;20058;-83
2021/12/17 07:48:54;;;;;;;40.57;33.17;;;;;;;4.85;74.08;103029.38;4914504;29;20087;-82
2021/12/17 07:51:24;;;;;;;41.20;32.63;;;;;;;4.86;74.15;103037.25;4930924;29;20066;-81
2021/12/17 07:53:51;;;;;;;40.33;31.97;;;;;;;4.11;73.64;102905.00;4932692;29;20060;-83
2021/12/17 07:56:21;;;;;;;39.93;32.07;;;;;;;4.90;73.91;103019.59;4916467;29;20503;-86
2021/12/17 07:58:48;;;;;;;43.77;34.60;;;;;;;3.78;73.87;102823.44;4916073;29;20056;-85
2021/12/17 08:01:15;;;;;;;42.13;34.73;;;;;;;4.23;73.82;102909.09;4915769;29;20063;-83
2021/12/17 08:03:42;;;;;;;39.67;33.10;;;;;;;4.38;73.60;102902.56;4931132;29;20055;-83
2021/12/17 08:06:12;;;;;;;41.10;33.73;;;;;;;5.13;73.86;103014.56;4915676;29;20055;-84
2021/12/17 08:08:39;;;;;;;40.77;33.00;;;;;;;5.20;73.46;103006.50;4915622;29;20114;-83
2021/12/17 08:11:06;;;;;;;40.60;31.67;;;;;;;5.19;73.20;102987.19;4914938;29;20059;-83
2021/12/17 08:13:36;;;;;;;38.57;31.47;;;;;;;5.12;73.25;102956.66;4914907;29;20205;-84
2021/12/17 08:27:25;;;;;;;31.27;27.00;;;;;;;5.56;72.43;102980.88;4932533;29;20166;-84
2021/12/17 08:29:54;;;;;;;36.28;27.77;;;;;;;5.68;71.70;102984.88;4930883;29;20051;-84
2021/12/17 08:32:21;;;;;;;32.00;26.70;;;;;;;5.40;71.17;102932.19;4914883;29;20150;-84
2021/12/17 08:34:48;;;;;;;34.38;26.25;;;;;;;5.31;71.21;102906.97;4915720;29;20044;-85
2021/12/17 08:37:15;;;;;;;34.17;27.27;;;;;;;5.76;70.76;102978.50;4932415;29;20063;-84
2021/12/17 08:39:42;;;;;;;34.72;26.48;;;;;;;5.62;71.07;102953.47;4932622;29;20784;-82
2021/12/17 08:42:10;;;;;;;36.08;28.40;;;;;;;5.99;70.92;103000.66;4931326;29;20058;-84
2021/12/17 08:44:39;;;;;;;30.75;26.35;;;;;;;4.58;70.37;102754.72;4930911;29;20047;-88
2021/12/17 08:47:06;;;;;;;35.40;25.15;;;;;;;5.47;69.96;102915.28;4931300;29;20188;-85
2021/12/17 08:49:33;;;;;;;30.45;24.45;;;;;;;5.89;70.06;102962.28;4913774;29;20131;-86
2021/12/17 08:52:06;;;;;;;28.52;24.38;;;;;;;6.29;69.83;103021.72;4931439;29;20500;-84
2021/12/17 08:54:33;;;;;;;26.33;22.90;;;;;;;6.05;69.53;102984.66;4931140;29;20134;-85
2021/12/17 08:57:01;;;;;;;28.77;22.83;;;;;;;6.25;69.32;103020.94;4931130;29;20138;-87
2021/12/17 08:59:29;;;;;;;25.27;21.88;;;;;;;6.39;69.50;103028.41;4932363;29;20131;-82
2021/12/17 09:01:56;;;;;;;24.38;19.50;;;;;;;6.24;69.33;102984.06;4930835;29;20142;-82
2021/12/17 09:04:27;;;;;;;27.10;20.27;;;;;;;5.49;68.88;102855.50;4930672;29;20088;-83
2021/12/17 09:06:54;;;;;;;27.67;21.10;;;;;;;6.24;68.48;102957.66;4931881;29;20062;-84
2021/12/17 09:09:22;;;;;;;23.38;19.58;;;;;;;6.68;68.37;103022.16;4930331;29;20528;-83
2021/12/17 09:11:50;;;;;;;20.95;18.65;;;;;;;6.72;68.33;103020.28;4930366;29;20048;-83
2021/12/17 09:14:19;;;;;;;25.67;19.45;;;;;;;6.75;68.31;103017.56;4931556;29;20127;-82
2021/12/17 09:16:50;;;;;;;22.80;18.77;;;;;;;6.11;68.02;102888.66;4931316;29;20129;-84
2021/12/17 09:19:17;;;;;;;23.50;18.67;;;;;;;6.80;67.84;102995.34;4930316;29;20138;-83
2021/12/17 09:21:44;;;;;;;20.15;17.55;;;;;;;6.66;67.55;102963.28;4930079;29;20488;-85
2021/12/17 09:24:11;;;;;;;20.98;17.33;;;;;;;6.22;67.40;102867.22;4929663;29;20530;-84
2021/12/17 09:26:37;;;;;;;19.48;17.30;;;;;;;6.41;67.08;102886.75;4936327;29;20056;-83
2021/12/17 09:29:04;;;;;;;20.60;18.15;;;;;;;7.15;66.90;102985.28;4929852;29;20053;-87
2021/12/17 09:31:31;;;;;;;20.52;18.15;;;;;;;7.20;67.29;102987.78;4931540;29;20493;-84
2021/12/17 09:33:57;;;;;;;20.13;16.85;;;;;;;7.23;67.11;102987.66;4914653;29;20127;-82
2021/12/17 09:36:24;;;;;;;20.52;16.73;;;;;;;6.88;66.83;102907.94;4914005;29;20476;-82
2021/12/17 09:38:52;;;;;;;21.40;18.08;;;;;;;7.18;67.14;102942.06;4931451;29;20055;-84
2021/12/17 09:41:22;;;;;;;21.73;18.02;;;;;;;7.38;67.00;102960.69;4931233;29;20072;-84
2021/12/17 09:43:49;;;;;;;19.90;17.80;;;;;;;7.47;67.06;102964.72;4931397;29;20094;-83
2021/12/17 09:46:38;;;;;;;20.85;17.75;;;;;;;6.86;66.71;102843.75;4930743;29;20094;-82
2021/12/17 09:49:19;;;;;;;20.92;17.67;;;;;;;7.57;66.53;102944.94;4932128;29;20127;-83
2021/12/17 09:51:47;;;;;;;21.05;18.10;;;;;;;5.83;66.44;102652.31;4916243;29;20067;-85
2021/12/17 09:54:14;;;;;;;20.05;17.00;;;;;;;7.69;66.61;102951.53;4917812;29;20370;-83
2021/12/17 09:56:42;;;;;;;21.77;18.70;;;;;;;7.22;66.17;102875.84;4921239;29;20494;-85
2021/12/17 09:59:08;;;;;;;19.80;17.70;;;;;;;6.41;66.72;102734.59;4924705;29;20101;-84
2021/12/17 10:01:42;;;;;;;20.23;17.20;;;;;;;7.10;66.67;102864.88;4935456;29;20063;-85
2021/12/17 10:04:16;;;;;;;21.33;17.90;;;;;;;7.07;66.17;102816.53;4933430;29;20514;-82
2021/12/17 10:06:48;;;;;;;19.75;17.55;;;;;;;6.24;66.62;102678.06;4933614;29;20282;-83
2021/12/17 10:09:16;;;;;;;20.42;17.55;;;;;;;7.49;66.70;102889.75;4929291;29;20578;-85
2021/12/17 10:12:06;;;;;;;24.52;17.35;;;;;;;7.85;66.71;102950.03;4913610;29;20048;-83
2021/12/17 10:14:33;;;;;;;22.50;16.83;;;;;;;7.64;66.27;102882.13;4913487;29;20452;-82
2021/12/17 10:17:13;;;;;;;21.27;18.25;;;;;;;6.81;66.35;102748.88;4913435;29;20134;-82
2021/12/17 10:19:49;;;;;;;17.25;14.60;;;;;;;7.94;66.56;102911.78;4913249;29;20560;-85
2021/12/17 10:22:19;;;;;;;18.02;14.38;;;;;;;7.42;65.97;102811.63;4913169;29;20047;-85
2021/12/17 10:24:57;;;;;;;15.63;13.95;;;;;;;6.56;65.58;102663.66;4913673;29;20115;-84
2021/12/17 10:27:29;;;;;;;15.50;13.82;;;;;;;6.63;65.63;102671.28;4913493;29;20628;-83
2021/12/17 10:29:57;;;;;;;19.05;14.38;;;;;;;8.31;65.74;102932.25;4930237;29;20063;-83
2021/12/17 10:32:26;;;;;;;15.23;13.32;;;;;;;8.40;65.61;102925.75;4912871;29;20047;-83
2021/12/17 10:35:15;;;;;;;14.40;12.57;;;;;;;8.47;65.36;102918.38;4930970;29;20054;-84
2021/12/17 10:37:44;;;;;;;15.68;12.35;;;;;;;8.20;65.21;102868.34;4913061;29;20055;-85
2021/12/17 10:40:38;;;;;;;16.90;13.77;;;;;;;8.54;64.70;102910.16;4913098;29;20058;-85
2021/12/17 10:43:17;;;;;;;15.98;12.90;;;;;;;8.54;64.60;102896.03;4929857;29;20612;-82
2021/12/17 10:45:59;;;;;;;16.25;14.00;;;;;;;8.45;64.53;102864.69;4913533;29;20415;-84
2021/12/17 10:48:36;;;;;;;18.02;15.00;;;;;;;8.31;64.75;102841.41;4912783;29;20127;-83
2021/12/17 10:51:10;;;;;;;19.15;15.23;;;;;;;8.78;64.04;102905.53;4913309;29;20134;-84
2021/12/17 10:53:39;;;;;;;16.80;14.30;;;;;;;8.23;64.23;102791.47;4928847;29;20059;-85
2021/12/17 10:56:06;;;;;;;16.10;13.88;;;;;;;8.51;64.54;102800.84;4912961;29;20088;-84
2021/12/17 10:58:33;;;;;;;14.45;12.40;;;;;;;7.77;62.33;102648.03;4928638;29;20059;-82
2021/12/17 11:01:06;;;;;;;14.65;13.15;;;;;;;8.60;62.11;102768.69;4929354;29;20107;-86
2021/12/17 11:03:43;;;;;;;14.48;12.27;;;;;;;8.40;62.08;102729.00;4911150;29;20063;-84
2021/12/17 11:06:10;;;;;;;15.73;12.23;;;;;;;7.98;62.20;102674.44;4929204;29;20048;-84
2021/12/17 11:08:39;;;;;;;14.43;12.30;;;;;;;8.66;62.55;102776.31;4928983;29;20047;-84
2021/12/17 11:11:11;;;;;;;17.38;12.52;;;;;;;8.56;62.74;102730.03;4929796;29;20084;-84
2021/12/17 11:13:56;;;;;;;19.77;13.88;;;;;;;7.80;62.53;102624.09;4913090;29;20056;-82
2021/12/17 11:16:22;;;;;;;14.45;12.95;;;;;;;9.17;62.56;102859.63;4929097;29;20055;-82
2021/12/17 11:18:52;;;;;;;15.80;13.68;;;;;;;7.77;62.34;102611.03;4913726;29;20492;-83
2021/12/17 11:21:20;;;;;;;17.88;13.98;;;;;;;9.07;62.98;102842.41;4916895;29;20058;-83
2021/12/17 11:23:47;;;;;;;17.13;13.10;;;;;;;8.87;62.92;102794.81;4933896;29;20055;-85
2021/12/17 11:26:14;;;;;;;14.77;12.93;;;;;;;8.11;63.17;102665.03;4916959;29;20130;-85
2021/12/17 11:28:44;;;;;;;15.05;12.73;;;;;;;8.00;62.63;102641.69;4916786;29;20067;-84
2021/12/17 11:31:12;;;;;;;14.65;12.50;;;;;;;8.09;62.60;102648.38;4933989;29;20060;-82
2021/12/17 11:33:39;;;;;;;15.98;12.60;;;;;;;8.53;62.28;102722.22;4916852;29;20055;-86
2021/12/17 11:36:06;;;;;;;13.88;12.38;;;;;;;7.56;62.54;102541.47;4916658;29;20084;-85
2021/12/17 11:38:59;;;;;;;21.10;13.55;;;;;;;8.35;63.08;102693.00;4932433;29;20060;-81
2021/12/17 11:42:13;;;;;;;15.57;13.43;;;;;;;8.27;62.98;102650.16;4931908;29;20519;-84
2021/12/17 11:44:42;;;;;;;15.60;13.02;;;;;;;8.09;62.51;102614.84;4839888;29;20462;-83
2021/12/17 11:47:11;;;;;;;17.17;13.07;;;;;;;8.67;62.83;102703.06;4906683;29;20059;-84
2021/12/17 11:49:47;;;;;;;15.90;13.23;;;;;;;8.44;62.76;102670.56;4932760;29;20055;-82
2021/12/17 11:52:14;;;;;;;19.02;13.52;;;;;;;8.68;62.85;102713.56;4932317;29;20052;-83
2021/12/17 11:54:44;;;;;;;18.17;13.07;;;;;;;8.11;63.06;102617.41;4931991;29;20075;-85
2021/12/17 11:57:16;;;;;;;15.73;13.23;;;;;;;8.81;62.76;102723.56;4933576;29;20138;-83
2021/12/17 11:59:47;;;;;;;15.88;12.95;;;;;;;8.93;63.32;102738.88;4934222;29;20051;-83
2021/12/17 12:02:25;;;;;;;16.67;13.70;;;;;;;9.33;62.89;102795.25;4916975;29;20062;-82
2021/12/17 12:04:57;;;;;;;15.93;14.23;;;;;;;8.34;62.85;102625.13;4932877;29;20055;-83
2021/12/17 12:07:24;;;;;;;16.30;14.23;;;;;;;9.39;62.69;102784.34;4916954;29;20393;-83
2021/12/17 12:10:22;;;;;;;19.02;14.80;;;;;;;9.27;63.03;102753.13;4935376;29;20176;-85
2021/12/17 12:12:50;;;;;;;14.30;12.70;;;;;;;9.46;63.05;102763.69;4904280;29;20056;-85
2021/12/17 12:15:16;;;;;;;19.13;15.27;;;;;;;9.50;62.73;102755.50;4935156;29;20058;-83
2021/12/17 12:18:03;;;;;;;21.75;16.20;;;;;;;9.46;63.17;102746.00;4935342;29;20067;-86
2021/12/17 12:20:45;;;;;;;18.23;14.90;;;;;;;9.50;63.02;102744.91;4935393;29;20075;-85
2021/12/17 12:23:20;;;;;;;18.55;15.80;;;;;;;8.44;63.26;102550.59;4931250;29;20560;-85
2021/12/17 12:26:11;;;;;;;16.58;14.15;;;;;;;9.48;62.60;102719.41;4915573;29;20499;-86
2021/12/17 12:28:44;;;;;;;17.27;14.63;;;;;;;9.59;62.73;102728.53;4915357;29;20487;-84
2021/12/17 12:31:34;;;;;;;16.55;14.30;;;;;;;9.62;62.30;102739.00;4917027;29;20139;-87
2021/12/17 12:34:04;;;;;;;14.35;12.85;;;;;;;9.67;62.64;102735.25;4914919;29;20055;-85
2021/12/17 12:36:52;;;;;;;15.32;13.73;;;;;;;9.66;62.94;102726.44;4915232;29;20142;-85
2021/12/17 12:39:34;;;;;;;16.02;13.40;;;;;;;9.72;62.39;102712.84;4930779;29;20059;-84
2021/12/17 12:42:04;;;;;;;15.73;12.27;;;;;;;9.23;62.32;102634.97;4915036;29;20063;-85
2021/12/17 12:44:49;;;;;;;17.98;13.68;;;;;;;9.66;62.02;102717.59;4932159;29;20075;-83
2021/12/17 12:47:30;;;;;;;18.30;14.45;;;;;;;9.67;62.79;102714.88;4931984;29;20107;-84
2021/12/17 12:50:04;;;;;;;15.65;13.95;;;;;;;9.69;63.48;102722.78;4931123;29;20059;-83
2021/12/17 12:52:59;;;;;;;15.63;13.55;;;;;;;9.69;62.42;102728.06;4915885;29;20081;-84
2021/12/17 12:55:45;;;;;;;16.77;12.77;;;;;;;8.51;62.40;102521.09;4931130;29;20051;-85
2021/12/17 12:58:15;;;;;;;18.63;14.68;;;;;;;8.42;62.70;102499.53;4915676;29;20079;-83
2021/12/17 13:00:42;;;;;;;20.02;14.82;;;;;;;9.74;62.71;102694.22;4930772;29;20106;-84
2021/12/17 13:03:25;;;;;;;16.55;14.75;;;;;;;9.74;62.85;102688.91;4915216;29;20086;-84
2021/12/17 13:05:54;;;;;;;17.25;14.20;;;;;;;9.05;61.90;102579.31;4915368;29;20079;-83
2021/12/17 13:08:22;;;;;;;20.08;14.40;;;;;;;8.98;62.65;102576.16;4915226;29;20056;-85
2021/12/17 13:10:55;;;;;;;16.50;14.48;;;;;;;9.66;62.29;102693.72;4914431;29;20635;-86
2021/12/17 13:24:16;;;;;;;23.20;18.05;;;;;;;8.92;62.98;102557.03;4921077;29;20059;-86
2021/12/17 13:26:45;;;;;;;23.60;18.55;;;;;;;8.38;63.35;102459.09;4914296;29;20066;-82
2021/12/17 13:29:14;;;;;;;20.75;17.05;;;;;;;8.41;63.85;102458.13;4930464;29;20058;-85
2021/12/17 13:31:54;;;;;;;19.40;17.05;;;;;;;9.71;63.55;102657.22;4929922;29;20106;-84
2021/12/17 13:34:41;;;;;;;23.75;18.75;;;;;;;8.87;63.68;102522.00;4914841;29;20103;-83
2021/12/17 13:37:12;;;;;;;23.13;18.63;;;;;;;8.68;63.68;102485.84;4930357;29;20059;-84
2021/12/17 13:39:51;;;;;;;20.77;18.58;;;;;;;8.16;63.11;102390.53;4930549;29;20052;-85
2021/12/17 13:42:36;;;;;;;18.40;16.50;;;;;;;8.51;63.70;102449.63;4914211;29;20564;-83
2021/12/17 13:45:08;;;;;;;20.70;17.77;;;;;;;9.26;63.06;102574.72;4930881;29;20052;-85
2021/12/17 13:47:47;;;;;;;21.77;19.48;;;;;;;8.96;63.56;102532.97;4931205;29;20563;-83
2021/12/17 13:50:36;;;;;;;22.02;19.10;;;;;;;9.70;63.86;102658.16;4914978;29;20547;-85
2021/12/17 13:53:16;;;;;;;24.60;19.08;;;;;;;8.53;63.60;102460.16;4918359;29;20052;-84
2021/12/17 13:56:25;;;;;;;19.40;17.27;;;;;;;7.88;63.40;102362.78;4922371;29;20059;-82
2021/12/17 13:59:04;;;;;;;21.83;19.50;;;;;;;9.02;64.26;102565.38;4920559;29;20110;-84
2021/12/17 14:01:49;;;;;;;22.27;19.92;;;;;;;9.67;64.21;102661.84;4929575;29;20060;-86
2021/12/17 14:04:16;;;;;;;22.45;19.15;;;;;;;9.65;63.62;102669.00;4932775;29;20082;-85
2021/12/17 14:06:51;;;;;;;22.98;20.50;;;;;;;8.84;64.25;102532.75;4936376;29;20102;-83
2021/12/17 14:09:20;;;;;;;25.27;20.70;;;;;;;8.91;64.30;102537.66;4931204;29;20607;-83
2021/12/17 14:11:47;;;;;;;25.30;20.80;;;;;;;7.64;64.14;102319.91;4917530;29;20269;-87
2021/12/17 14:14:35;;;;;;;23.23;20.02;;;;;;;8.89;64.37;102541.31;4932864;29;20450;-86
2021/12/17 14:17:05;;;;;;;20.38;16.40;;;;;;;7.86;64.42;102374.38;4930804;29;20051;-84
2021/12/17 14:19:36;;;;;;;23.88;21.25;;;;;;;9.51;64.59;102651.16;4929844;29;20074;-85
2021/12/17 14:23:05;;;;;;;;;;;;;;;;;;;;;
2021/12/17 14:25:42;;;;;;;24.98;21.92;;;;;;;8.84;65.19;102549.50;4855308;29;20076;-86
2021/12/17 14:28:14;;;;;;;22.65;20.30;;;;;;;9.36;65.40;102631.59;4876883;29;20056;-86